Time;durP1;ratioP1;P1;durP2;ratioP2;P2;SDS_P1;SDS_P2;PMS_P1;PMS_P2;Temp;Humidity;BMP_temperature;BMP_pressure;BME280_temperature;BME280_humidity;BME280_pressure;Samples;Min_cycle;Max_cycle;Signal;HPM_P1;HPM_P2
2022/05/15 00:00:41;;;;;;;0.70;0.70;;;12.60;99.90;;;;;;5281604;28;20024;-73
2022/05/15 00:03:20;;;;;;;1.45;1.15;;;12.60;99.90;;;;;;5270139;28;20012;-73
2022/05/15 00:05:56;;;;;;;0.60;0.60;;;12.70;99.90;;;;;;5264898;28;20047;-74
2022/05/15 00:08:33;;;;;;;0.68;0.68;;;12.60;99.90;;;;;;5274667;27;20016;-73
2022/05/15 00:11:06;;;;;;;0.95;0.95;;;12.50;99.90;;;;;;5277382;28;20038;-73
2022/05/15 00:13:40;;;;;;;0.70;0.70;;;12.50;99.90;;;;;;5277704;28;20020;-72
2022/05/15 00:16:11;;;;;;;0.80;0.80;;;12.40;99.90;;;;;;5243789;28;20028;-75
2022/05/15 00:18:44;;;;;;;4.03;1.65;;;12.40;99.90;;;;;;5243742;28;20634;-75
2022/05/15 00:21:15;;;;;;;0.85;0.85;;;12.30;99.90;;;;;;5256277;28;20026;-73
2022/05/15 00:23:46;;;;;;;0.80;0.80;;;12.20;99.90;;;;;;5246705;28;20031;-74
2022/05/15 00:26:20;;;;;;;1.17;1.15;;;12.20;99.90;;;;;;5258139;28;20037;-74
2022/05/15 00:28:54;;;;;;;0.90;0.90;;;12.20;99.90;;;;;;5264579;28;20020;-74
2022/05/15 00:31:29;;;;;;;0.80;0.80;;;12.20;99.90;;;;;;5273862;28;20019;-74
2022/05/15 00:34:06;;;;;;;0.70;0.70;;;12.20;99.90;;;;;;5265858;28;20031;-74
2022/05/15 00:36:38;;;;;;;0.80;0.80;;;12.10;99.90;;;;;;5292334;27;20019;-74
2022/05/15 00:39:10;;;;;;;1.10;1.10;;;12.10;99.90;;;;;;5263324;28;20011;-73
2022/05/15 00:41:45;;;;;;;0.70;0.70;;;12.20;99.90;;;;;;5281838;28;20047;-75
2022/05/15 00:44:19;;;;;;;0.60;0.60;;;12.10;99.90;;;;;;5264021;28;20019;-75
2022/05/15 00:46:52;;;;;;;0.73;0.73;;;12.10;99.90;;;;;;5264238;28;20009;-72
2022/05/15 00:49:24;;;;;;;0.60;0.60;;;12.00;99.90;;;;;;5259881;28;20031;-73
2022/05/15 00:52:03;;;;;;;0.60;0.60;;;11.90;99.90;;;;;;5259878;28;20466;-72
2022/05/15 00:54:55;;;;;;;0.80;0.80;;;11.90;99.90;;;;;;5262938;28;20034;-73
2022/05/15 00:57:35;;;;;;;0.60;0.60;;;11.80;99.90;;;;;;5260927;28;20018;-73
2022/05/15 01:00:11;;;;;;;0.60;0.60;;;11.80;99.90;;;;;;5276100;28;20008;-73
2022/05/15 01:02:50;;;;;;;0.52;0.52;;;11.70;99.90;;;;;;5260315;28;20241;-73
2022/05/15 01:05:24;;;;;;;0.60;0.60;;;11.80;99.90;;;;;;5258572;27;20044;-74
2022/05/15 01:07:55;;;;;;;0.70;0.70;;;11.80;99.90;;;;;;5264691;28;20042;-73
2022/05/15 01:10:27;;;;;;;0.90;0.90;;;11.80;99.90;;;;;;5297102;27;20015;-72
2022/05/15 01:12:59;;;;;;;0.93;0.93;;;11.80;99.90;;;;;;5262414;28;20032;-73
2022/05/15 01:15:31;;;;;;;0.70;0.70;;;11.80;99.90;;;;;;5263370;28;20028;-73
2022/05/15 01:18:03;;;;;;;1.00;1.00;;;11.80;99.90;;;;;;5276417;28;20016;-74
2022/05/15 01:20:39;;;;;;;0.90;0.90;;;11.90;99.90;;;;;;5242434;28;20039;-72
2022/05/15 01:23:11;;;;;;;0.80;0.80;;;11.90;99.90;;;;;;5264710;28;20036;-72
2022/05/15 01:25:42;;;;;;;0.80;0.80;;;11.90;99.90;;;;;;5262479;28;20516;-73
2022/05/15 01:28:19;;;;;;;0.80;0.80;;;11.90;99.90;;;;;;5256501;28;20032;-72
2022/05/15 01:30:57;;;;;;;0.80;0.80;;;11.80;99.90;;;;;;5277090;28;20012;-73
2022/05/15 01:33:33;;;;;;;0.50;0.50;;;11.80;99.90;;;;;;5280590;28;20024;-72
2022/05/15 01:36:08;;;;;;;0.70;0.70;;;11.80;99.90;;;;;;5278592;27;20045;-72
2022/05/15 01:38:42;;;;;;;0.60;0.60;;;11.80;99.90;;;;;;5286144;27;20034;-72
2022/05/15 01:41:17;;;;;;;3.53;2.10;;;11.70;99.90;;;;;;5302572;27;20015;-73
2022/05/15 01:43:53;;;;;;;2.28;2.15;;;11.70;99.90;;;;;;5276737;28;20286;-73
2022/05/15 01:46:30;;;;;;;1.70;1.60;;;11.70;99.90;;;;;;5279390;28;20027;-73
2022/05/15 01:49:06;;;;;;;0.57;0.57;;;11.70;99.90;;;;;;5280338;28;20569;-72
2022/05/15 01:51:42;;;;;;;0.73;0.73;;;11.80;99.90;;;;;;5278620;28;20041;-72
2022/05/15 01:54:16;;;;;;;0.60;0.60;;;11.80;99.90;;;;;;5279450;28;20337;-72
2022/05/15 01:56:48;;;;;;;0.90;0.90;;;11.80;99.90;;;;;;5273996;28;20023;-73
2022/05/15 01:59:19;;;;;;;0.70;0.70;;;11.70;99.90;;;;;;5254641;28;20019;-72
2022/05/15 02:01:50;;;;;;;0.70;0.70;;;11.60;99.90;;;;;;5279315;28;20036;-73
2022/05/15 02:04:25;;;;;;;0.80;0.80;;;11.60;99.90;;;;;;5259647;28;20194;-73
2022/05/15 02:07:02;;;;;;;0.80;0.80;;;11.50;99.90;;;;;;5258079;28;20044;-72
2022/05/15 02:09:39;;;;;;;0.60;0.60;;;11.40;99.90;;;;;;5280740;27;20033;-73
2022/05/15 02:12:16;;;;;;;0.88;0.88;;;11.40;99.90;;;;;;5260523;28;20024;-73
2022/05/15 02:14:47;;;;;;;2.58;0.80;;;11.50;99.90;;;;;;5272831;28;20030;-73
2022/05/15 02:17:18;;;;;;;0.70;0.70;;;11.40;99.90;;;;;;5277913;28;20021;-73
2022/05/15 02:19:50;;;;;;;0.60;0.60;;;11.40;99.90;;;;;;5278517;28;20518;-73
2022/05/15 02:22:24;;;;;;;0.80;0.80;;;11.30;99.90;;;;;;5240974;28;20023;-73
2022/05/15 02:24:57;;;;;;;1.10;1.10;;;11.20;99.90;;;;;;5278004;28;20066;-72
2022/05/15 02:27:29;;;;;;;0.77;0.77;;;11.20;99.90;;;;;;5265622;28;20563;-72
2022/05/15 02:30:02;;;;;;;0.80;0.80;;;11.20;99.90;;;;;;5278609;28;20024;-73
2022/05/15 02:32:33;;;;;;;0.82;0.82;;;11.20;99.90;;;;;;5261229;28;20021;-73
2022/05/15 02:35:09;;;;;;;0.75;0.75;;;11.30;99.90;;;;;;5279461;28;20016;-72
2022/05/15 02:37:47;;;;;;;0.65;0.65;;;11.20;99.90;;;;;;5278925;28;20062;-74
2022/05/15 02:40:23;;;;;;;0.70;0.70;;;11.20;99.90;;;;;;5280071;28;20029;-73
2022/05/15 02:42:57;;;;;;;0.70;0.70;;;11.20;99.90;;;;;;5261482;28;20051;-73
2022/05/15 02:45:28;;;;;;;1.90;1.40;;;11.20;99.90;;;;;;5264668;28;20024;-73
2022/05/15 02:48:02;;;;;;;0.93;0.93;;;11.20;99.90;;;;;;5258418;28;20512;-73
2022/05/15 02:53:27;;;;;;;0.60;0.60;;;11.10;99.90;;;;;;5263635;28;20039;-73
2022/05/15 02:56:02;;;;;;;1.10;1.10;;;11.00;99.90;;;;;;5270618;28;20024;-73
2022/05/15 02:58:38;;;;;;;0.60;0.60;;;11.10;99.90;;;;;;5258064;28;20266;-73
2022/05/15 03:01:10;;;;;;;0.90;0.90;;;11.10;99.90;;;;;;5274208;28;20018;-73
2022/05/15 03:03:44;;;;;;;0.60;0.60;;;11.10;99.90;;;;;;5243873;28;20028;-73
2022/05/15 03:06:19;;;;;;;1.00;1.00;;;11.10;99.90;;;;;;5261834;27;20047;-71
2022/05/15 03:08:52;;;;;;;1.77;1.67;;;11.00;99.90;;;;;;5267111;28;20031;-72
2022/05/15 03:11:28;;;;;;;0.60;0.60;;;11.10;99.90;;;;;;5291273;28;20222;-72
2022/05/15 03:13:59;;;;;;;0.50;0.50;;;11.10;99.90;;;;;;5278495;28;20034;-70
2022/05/15 03:16:31;;;;;;;0.63;0.63;;;11.00;99.90;;;;;;5261378;28;20070;-72
2022/05/15 03:19:03;;;;;;;0.60;0.60;;;11.00;99.90;;;;;;5278773;28;20225;-72
2022/05/15 03:21:39;;;;;;;0.60;0.60;;;11.00;99.90;;;;;;5267164;28;20011;-73
2022/05/15 03:24:14;;;;;;;0.60;0.60;;;11.10;99.90;;;;;;5277755;28;20015;-72
2022/05/15 03:26:48;;;;;;;0.90;0.90;;;11.20;99.90;;;;;;5267472;28;20020;-72
2022/05/15 03:29:22;;;;;;;0.80;0.80;;;11.30;99.90;;;;;;5223276;28;20030;-72
2022/05/15 03:31:59;;;;;;;0.80;0.80;;;11.60;99.90;;;;;;5258120;28;20451;-72
2022/05/15 03:34:33;;;;;;;1.42;1.38;;;11.90;99.90;;;;;;5260137;28;20031;-73
2022/05/15 03:37:10;;;;;;;0.60;0.55;;;12.30;99.90;;;;;;5290102;28;20022;-72
2022/05/15 03:39:41;;;;;;;0.70;0.70;;;12.80;99.90;;;;;;5258020;28;20008;-72
2022/05/15 03:42:15;;;;;;;0.60;0.60;;;13.10;99.90;;;;;;5223166;28;20847;-72
2022/05/15 03:44:48;;;;;;;0.90;0.90;;;13.60;99.90;;;;;;5239548;28;20652;-73
2022/05/15 03:47:21;;;;;;;0.85;0.85;;;13.80;99.90;;;;;;5240522;28;20350;-73
2022/05/15 03:50:03;;;;;;;0.70;0.70;;;14.10;99.90;;;;;;5258467;28;20038;-72
2022/05/15 03:52:36;;;;;;;0.60;0.60;;;14.20;99.90;;;;;;5270462;27;20034;-73
2022/05/15 03:55:11;;;;;;;0.90;0.90;;;14.30;99.90;;;;;;5259571;28;20024;-73
2022/05/15 03:57:43;;;;;;;0.93;0.93;;;14.50;99.90;;;;;;5258684;28;20595;-72
2022/05/15 04:00:21;;;;;;;0.80;0.80;;;14.60;99.90;;;;;;5268505;28;20317;-73
2022/05/15 04:02:55;;;;;;;1.17;0.90;;;14.60;99.90;;;;;;5279576;28;20034;-74
2022/05/15 04:05:28;;;;;;;0.80;0.80;;;14.60;99.90;;;;;;5244458;28;20557;-71
2022/05/15 04:07:59;;;;;;;0.60;0.60;;;14.60;99.90;;;;;;5265721;28;20039;-74
2022/05/15 04:10:31;;;;;;;1.23;1.15;;;14.70;99.90;;;;;;5299321;27;20236;-73
2022/05/15 04:13:05;;;;;;;0.70;0.70;;;14.70;99.90;;;;;;5261631;28;20024;-73
2022/05/15 04:15:37;;;;;;;0.70;0.70;;;14.60;99.90;;;;;;5281438;28;20484;-73
2022/05/15 04:18:09;;;;;;;1.13;1.02;;;14.60;99.90;;;;;;5281931;28;20034;-72
2022/05/15 04:20:42;;;;;;;0.60;0.60;;;14.80;99.90;;;;;;5281802;28;20304;-72
2022/05/15 04:23:15;;;;;;;0.70;0.70;;;15.00;99.90;;;;;;5280738;28;20024;-72
2022/05/15 04:25:47;;;;;;;0.68;0.68;;;15.10;99.90;;;;;;5263533;28;20030;-72
2022/05/15 04:28:18;;;;;;;0.80;0.80;;;15.20;99.90;;;;;;5263228;28;20039;-72
2022/05/15 04:30:50;;;;;;;0.75;0.75;;;15.40;99.90;;;;;;5263336;28;20016;-72
2022/05/15 04:33:21;;;;;;;0.60;0.60;;;15.40;99.90;;;;;;5281229;28;20012;-72
2022/05/15 04:35:54;;;;;;;0.80;0.80;;;15.40;99.90;;;;;;5272008;27;20034;-71
2022/05/15 04:38:28;;;;;;;0.85;0.85;;;15.50;99.90;;;;;;5286370;27;20031;-72
2022/05/15 04:41:00;;;;;;;0.85;0.80;;;15.60;99.90;;;;;;5302520;27;20497;-72
2022/05/15 04:43:31;;;;;;;1.08;1.08;;;15.70;99.90;;;;;;5282853;27;20339;-71
2022/05/15 04:46:07;;;;;;;1.10;1.00;;;15.90;99.90;;;;;;5282453;28;20035;-72
2022/05/15 04:48:38;;;;;;;0.75;0.75;;;16.00;99.90;;;;;;5281093;28;20038;-71
2022/05/15 04:51:10;;;;;;;0.47;0.47;;;16.10;99.90;;;;;;5281567;28;20582;-72
2022/05/15 04:53:43;;;;;;;0.50;0.50;;;16.10;99.90;;;;;;5260770;28;20043;-71
2022/05/15 04:56:15;;;;;;;0.68;0.68;;;16.20;99.90;;;;;;5281888;28;20022;-72
2022/05/15 04:58:46;;;;;;;0.60;0.60;;;16.30;99.90;;;;;;5280551;28;20028;-73
2022/05/15 05:01:24;;;;;;;0.50;0.50;;;16.50;99.90;;;;;;5260672;28;20347;-72
2022/05/15 05:04:01;;;;;;;0.88;0.88;;;16.80;99.90;;;;;;5263701;28;20015;-72
2022/05/15 05:06:33;;;;;;;0.80;0.80;;;17.00;99.90;;;;;;5265925;28;20055;-73
2022/05/15 05:09:06;;;;;;;0.90;0.90;;;17.30;99.90;;;;;;5287551;27;20019;-73
2022/05/15 05:11:37;;;;;;;0.70;0.70;;;17.50;99.90;;;;;;5291069;27;20026;-72
2022/05/15 05:14:09;;;;;;;0.50;0.50;;;17.70;99.90;;;;;;5279732;28;20028;-73
2022/05/15 05:16:40;;;;;;;0.80;0.80;;;17.80;99.90;;;;;;5260667;28;20015;-74
2022/05/15 05:19:12;;;;;;;0.90;0.75;;;18.00;99.90;;;;;;5262149;28;20023;-72
2022/05/15 05:21:43;;;;;;;0.75;0.75;;;18.20;99.90;;;;;;5263132;28;20027;-71
2022/05/15 05:24:14;;;;;;;2.92;0.80;;;18.50;99.90;;;;;;5245961;28;20023;-73
2022/05/15 05:26:51;;;;;;;0.43;0.43;;;18.90;99.90;;;;;;5280627;28;20030;-74
2022/05/15 05:29:24;;;;;;;0.40;0.40;;;19.20;99.90;;;;;;5277340;28;20031;-73
2022/05/15 05:31:58;;;;;;;0.50;0.50;;;19.60;99.90;;;;;;5262973;28;20020;-71
2022/05/15 05:34:34;;;;;;;0.50;0.50;;;20.00;99.90;;;;;;5262799;28;20027;-73
2022/05/15 05:37:06;;;;;;;0.50;0.50;;;20.20;99.90;;;;;;5279593;28;20030;-71
2022/05/15 05:39:42;;;;;;;0.52;0.52;;;20.50;99.90;;;;;;5262018;28;20229;-71
2022/05/15 05:42:14;;;;;;;0.85;0.68;;;20.80;99.90;;;;;;5280286;28;20020;-71
2022/05/15 05:44:48;;;;;;;0.45;0.45;;;21.20;99.90;;;;;;5279805;28;20027;-73
2022/05/15 05:47:30;;;;;;;0.65;0.65;;;21.20;99.90;;;;;;5278507;28;20019;-71
2022/05/15 05:50:01;;;;;;;0.52;0.52;;;21.10;99.90;;;;;;5279251;28;20034;-72
2022/05/15 05:52:33;;;;;;;0.70;0.63;;;21.10;99.90;;;;;;5276918;27;20034;-72
2022/05/15 05:55:08;;;;;;;0.60;0.60;;;21.40;99.90;;;;;;5280088;28;20031;-72
2022/05/15 05:57:40;;;;;;;0.60;0.60;;;21.60;99.90;;;;;;5280497;28;20015;-73
2022/05/15 06:00:20;;;;;;;1.45;0.73;;;21.90;99.90;;;;;;5275031;28;20015;-72
2022/05/15 06:04:39;;;;;;;0.38;0.38;;;22.50;99.90;;;;;;5279236;28;20028;-73
2022/05/15 06:05:51;;;;;;;0.55;0.55;;;22.90;99.90;;;;;;5256144;28;20044;-73
2022/05/15 06:08:28;;;;;;;0.65;0.60;;;23.10;99.90;;;;;;5272642;28;20033;-73
2022/05/15 06:10:59;;;;;;;1.10;0.43;;;23.40;99.90;;;;;;5274226;28;20028;-71
2022/05/15 06:13:30;;;;;;;0.47;0.47;;;23.90;99.90;;;;;;5271747;28;20024;-73
2022/05/15 06:16:03;;;;;;;3.50;0.63;;;23.90;99.90;;;;;;5251544;28;20035;-73
2022/05/15 06:18:35;;;;;;;0.68;0.68;;;24.00;99.90;;;;;;5272293;28;20057;-73
2022/05/15 06:21:06;;;;;;;1.08;0.52;;;23.70;99.90;;;;;;5276045;28;20488;-73
2022/05/15 06:23:37;;;;;;;0.47;0.47;;;22.40;99.90;;;;;;5276406;28;20032;-72
2022/05/15 06:26:11;;;;;;;0.55;0.55;;;22.00;99.90;;;;;;5277125;28;20027;-72
2022/05/15 06:28:42;;;;;;;0.55;0.55;;;21.30;99.90;;;;;;5275618;28;20027;-74
2022/05/15 06:31:13;;;;;;;0.43;0.43;;;20.90;99.90;;;;;;5275584;28;20349;-72
2022/05/15 06:33:44;;;;;;;0.60;0.40;;;21.00;99.90;;;;;;5276196;28;20018;-74
2022/05/15 06:36:18;;;;;;;0.30;0.30;;;21.20;99.90;;;;;;5267848;27;20023;-73
2022/05/15 06:38:49;;;;;;;0.52;0.52;;;20.80;99.90;;;;;;5267146;28;20026;-74
2022/05/15 06:41:24;;;;;;;0.88;0.88;;;20.80;99.90;;;;;;5275334;28;20389;-73
2022/05/15 06:43:55;;;;;;;0.40;0.40;;;21.50;99.90;;;;;;5277141;28;20029;-73
2022/05/15 06:46:29;;;;;;;1.35;0.60;;;21.10;99.90;;;;;;5277885;28;20022;-75
2022/05/15 06:49:00;;;;;;;0.50;0.50;;;21.10;99.90;;;;;;5264997;28;20036;-75
2022/05/15 06:51:31;;;;;;;0.60;0.60;;;21.20;99.90;;;;;;5266711;28;20695;-73
2022/05/15 06:54:06;;;;;;;0.82;0.82;;;21.10;99.90;;;;;;5270240;28;20614;-73
2022/05/15 06:59:27;;;;;;;0.43;0.43;;;21.60;99.90;;;;;;5270832;28;20022;-71
2022/05/15 07:01:58;;;;;;;0.47;0.47;;;21.40;99.90;;;;;;5273133;28;20032;-73
2022/05/15 07:04:29;;;;;;;0.95;0.82;;;21.10;99.90;;;;;;5255623;27;20048;-71
2022/05/15 07:07:00;;;;;;;0.68;0.68;;;21.10;99.90;;;;;;5257472;28;20034;-72
2022/05/15 07:09:32;;;;;;;0.60;0.60;;;21.10;99.90;;;;;;5268414;28;20234;-70
2022/05/15 07:12:06;;;;;;;0.77;0.77;;;21.00;99.90;;;;;;5266417;28;20057;-72
2022/05/15 07:14:38;;;;;;;0.65;0.65;;;21.10;99.90;;;;;;5248893;28;20031;-72
2022/05/15 07:17:11;;;;;;;0.68;0.68;;;21.10;99.90;;;;;;5248781;28;20022;-73
2022/05/15 07:19:43;;;;;;;0.70;0.70;;;21.60;99.90;;;;;;5265954;28;20039;-72
2022/05/15 07:22:16;;;;;;;3.42;1.25;;;22.50;99.90;;;;;;5250779;28;20027;-72
2022/05/15 07:24:50;;;;;;;1.75;1.13;;;23.20;99.90;;;;;;5269118;28;20022;-72
2022/05/15 07:27:21;;;;;;;0.53;0.53;;;23.60;99.90;;;;;;5267622;28;20453;-71
2022/05/15 07:29:52;;;;;;;0.50;0.50;;;24.10;99.90;;;;;;5250068;28;20486;-70
2022/05/15 07:32:24;;;;;;;0.60;0.60;;;24.00;99.90;;;;;;5269491;28;20237;-71
2022/05/15 07:34:55;;;;;;;0.70;0.70;;;23.20;99.90;;;;;;5271587;28;20016;-72
2022/05/15 07:37:27;;;;;;;0.45;0.40;;;23.80;99.90;;;;;;5254490;28;20226;-70
2022/05/15 07:40:03;;;;;;;0.50;0.50;;;24.20;99.90;;;;;;5272181;28;20585;-70
2022/05/15 07:42:41;;;;;;;0.52;0.52;;;24.40;99.90;;;;;;5257323;28;20023;-72
2022/05/15 07:45:14;;;;;;;0.57;0.57;;;24.60;99.90;;;;;;5251953;28;20039;-72
2022/05/15 07:47:45;;;;;;;0.40;0.40;;;25.10;99.90;;;;;;5225736;28;20038;-72
2022/05/15 07:50:17;;;;;;;1.08;0.98;;;24.70;99.90;;;;;;5243604;28;20036;-72
2022/05/15 07:52:51;;;;;;;0.60;0.60;;;24.80;99.90;;;;;;5263501;28;20044;-72
2022/05/15 07:55:25;;;;;;;0.70;0.70;;;24.70;99.90;;;;;;5281853;28;20222;-71
2022/05/15 07:57:56;;;;;;;0.65;0.65;;;24.50;99.90;;;;;;5281350;28;20038;-71
2022/05/15 08:00:27;;;;;;;0.47;0.47;;;23.40;99.90;;;;;;5267502;28;20034;-71
2022/05/15 08:03:13;;;;;;;0.60;0.60;;;24.00;99.90;;;;;;5228237;28;20036;-71
2022/05/15 08:08:37;;;;;;;0.60;0.60;;;25.80;99.90;;;;;;5279969;28;20019;-71
2022/05/15 08:11:08;;;;;;;3.20;1.95;;;26.00;99.90;;;;;;5260456;28;20024;-71
2022/05/15 08:13:42;;;;;;;0.50;0.50;;;25.50;99.90;;;;;;5267701;28;20446;-70
2022/05/15 08:16:14;;;;;;;0.50;0.50;;;25.60;99.90;;;;;;5281396;28;20572;-72
2022/05/15 08:24:32;;;;;;;0.47;0.47;;;26.10;99.90;;;;;;5281276;28;20045;-71
2022/05/15 08:27:10;;;;;;;0.63;0.63;;;26.40;99.90;;;;;;5283141;28;20032;-71
2022/05/15 08:29:43;;;;;;;0.70;0.70;;;26.30;99.90;;;;;;5278831;28;20030;-71
2022/05/15 08:32:14;;;;;;;1.27;1.17;;;26.60;99.90;;;;;;5259727;28;20271;-72
2022/05/15 08:34:48;;;;;;;0.60;0.60;;;27.40;99.90;;;;;;5271800;28;20597;-71
2022/05/15 08:37:22;;;;;;;0.65;0.65;;;27.90;99.90;;;;;;5299230;27;20031;-71
2022/05/15 08:39:54;;;;;;;1.15;0.85;;;28.00;99.90;;;;;;5280332;27;20012;-71
2022/05/15 08:42:44;;;;;;;1.15;1.15;;;28.00;99.90;;;;;;5243961;28;20486;-71
2022/05/15 08:45:18;;;;;;;0.50;0.50;;;27.90;99.90;;;;;;5261602;28;20023;-71
2022/05/15 08:48:00;;;;;;;0.65;0.65;;;27.40;99.90;;;;;;5280249;28;20031;-72
2022/05/15 08:50:39;;;;;;;0.52;0.52;;;27.50;99.90;;;;;;5280205;28;20039;-71
2022/05/15 08:53:22;;;;;;;0.88;0.80;;;28.00;99.90;;;;;;5276399;28;20042;-71
2022/05/15 08:55:59;;;;;;;0.70;0.70;;;27.30;99.90;;;;;;5280664;28;20141;-71
2022/05/15 08:58:37;;;;;;;0.77;0.77;;;27.70;99.90;;;;;;5280408;28;20027;-71
2022/05/15 09:01:16;;;;;;;1.85;0.63;;;27.70;99.90;;;;;;5281164;28;20034;-71
2022/05/15 09:03:48;;;;;;;0.40;0.40;;;28.30;99.90;;;;;;5276349;28;20528;-71
2022/05/15 09:06:59;;;;;;;0.85;0.85;;;28.40;99.90;;;;;;5262490;28;20077;-72
2022/05/15 09:09:58;;;;;;;0.40;0.40;;;28.10;99.90;;;;;;5262707;27;20046;-71
2022/05/15 09:12:33;;;;;;;0.73;0.70;;;28.50;99.90;;;;;;5260687;28;20035;-71
2022/05/15 09:15:22;;;;;;;0.75;0.75;;;28.70;99.90;;;;;;5245944;28;20353;-71
2022/05/15 09:17:58;;;;;;;1.42;0.80;;;28.60;99.90;;;;;;5280672;28;20023;-71
2022/05/15 09:20:47;;;;;;;0.60;0.60;;;26.90;99.90;;;;;;5278573;28;20034;-71
2022/05/15 09:23:39;;;;;;;0.50;0.50;;;27.80;99.90;;;;;;5266375;28;20051;-72
2022/05/15 09:26:40;;;;;;;0.65;0.65;;;28.00;99.90;;;;;;5261572;28;20027;-71
2022/05/15 09:29:28;;;;;;;1.73;1.10;;;28.30;99.90;;;;;;5280314;28;20015;-71
2022/05/15 09:32:00;;;;;;;0.50;0.50;;;29.20;99.90;;;;;;5279592;28;20057;-71
2022/05/15 09:34:41;;;;;;;0.82;0.82;;;28.80;99.90;;;;;;5277947;28;20051;-72
2022/05/15 09:43:52;;;;;;;0.75;0.60;;;28.60;99.90;;;;;;5264217;28;20349;-71
2022/05/15 09:46:28;;;;;;;0.40;0.40;;;28.70;99.90;;;;;;5276162;28;20032;-71
2022/05/15 09:49:24;;;;;;;0.63;0.63;;;29.20;99.90;;;;;;5258844;28;20020;-71
2022/05/15 09:52:01;;;;;;;0.60;0.60;;;29.50;99.90;;;;;;5258913;28;20040;-71
2022/05/15 09:54:38;;;;;;;0.50;0.50;;;30.20;99.90;;;;;;5258624;28;20034;-71
2022/05/15 09:57:12;;;;;;;1.52;0.68;;;30.30;99.90;;;;;;5264998;28;20011;-71
2022/05/15 09:59:51;;;;;;;;;;;30.30;99.90;;;;;;5261627;28;20477;-71
2022/05/15 10:02:26;;;;;;;0.70;0.70;;;29.60;99.90;;;;;;5258300;28;19919;-71
2022/05/15 10:05:02;;;;;;;0.57;0.57;;;30.20;99.90;;;;;;5237363;28;20052;-71
2022/05/15 10:07:46;;;;;;;0.77;0.77;;;30.50;99.90;;;;;;5266907;28;20489;-71
2022/05/15 10:10:24;;;;;;;0.43;0.43;;;30.30;99.90;;;;;;5280372;28;20632;-71
2022/05/15 10:13:00;;;;;;;0.57;0.57;;;30.90;99.90;;;;;;5261137;28;20258;-71
2022/05/15 10:15:41;;;;;;;0.77;0.77;;;29.90;99.90;;;;;;5234782;28;20039;-71
2022/05/15 10:18:30;;;;;;;0.43;0.40;;;30.80;99.90;;;;;;5280310;28;20178;-71
2022/05/15 10:21:05;;;;;;;0.40;0.40;;;31.70;99.90;;;;;;5279745;28;20062;-71
2022/05/15 10:23:55;;;;;;;0.50;0.50;;;31.80;99.90;;;;;;5279583;28;20046;-71
2022/05/15 10:26:46;;;;;;;0.70;0.70;;;32.30;99.90;;;;;;5280302;28;20589;-71
2022/05/15 10:29:49;;;;;;;0.45;0.45;;;31.10;98.60;;;;;;5242318;28;20345;-71
2022/05/15 10:32:44;;;;;;;0.85;0.85;;;32.00;99.30;;;;;;5271764;28;20097;-72
2022/05/15 10:35:25;;;;;;;6.53;2.40;;;33.40;98.30;;;;;;5262125;27;20542;-71
2022/05/15 10:38:30;;;;;;;0.70;0.70;;;33.90;96.80;;;;;;5280450;28;20023;-71
2022/05/15 10:41:26;;;;;;;0.90;0.85;;;34.50;96.50;;;;;;5279544;28;20034;-71
2022/05/15 10:44:17;;;;;;;0.80;0.80;;;33.60;95.40;;;;;;5280300;28;20023;-71
2022/05/15 10:46:54;;;;;;;0.73;0.73;;;33.60;96.20;;;;;;5279141;28;20057;-71
2022/05/15 10:49:34;;;;;;;0.70;0.70;;;32.60;95.30;;;;;;5280252;28;20499;-71
2022/05/15 10:52:17;;;;;;;0.85;0.70;;;32.10;96.50;;;;;;5280038;28;20604;-72
2022/05/15 10:58:30;;;;;;;0.57;0.57;;;32.40;95.40;;;;;;5241057;28;20032;-72
2022/05/15 11:01:13;;;;;;;1.10;0.82;;;33.70;95.30;;;;;;5262719;28;20032;-70
2022/05/15 11:04:16;;;;;;;0.97;0.60;;;33.70;95.60;;;;;;5270796;28;20034;-72
2022/05/15 11:06:54;;;;;;;0.52;0.52;;;33.80;93.80;;;;;;5235063;28;20047;-70
2022/05/15 11:09:46;;;;;;;2.50;1.20;;;34.50;94.60;;;;;;5278260;27;20491;-70
2022/05/15 11:12:23;;;;;;;1.58;1.48;;;36.00;93.40;;;;;;5262792;28;20034;-70
2022/05/15 11:15:22;;;;;;;0.70;0.70;;;35.10;93.60;;;;;;5261742;28;20038;-70
2022/05/15 11:18:25;;;;;;;3.70;1.00;;;35.00;93.90;;;;;;5262624;28;20028;-72
2022/05/15 11:21:01;;;;;;;0.80;0.80;;;34.60;93.50;;;;;;5262822;28;20218;-71
2022/05/15 11:23:49;;;;;;;0.70;0.68;;;34.40;93.30;;;;;;5272643;28;20019;-69
2022/05/15 11:26:31;;;;;;;0.60;0.60;;;36.40;93.10;;;;;;5264368;28;20561;-71
2022/05/15 11:29:11;;;;;;;0.60;0.60;;;37.10;91.80;;;;;;5262669;28;20223;-70
2022/05/15 11:31:51;;;;;;;0.75;0.75;;;34.60;92.90;;;;;;5277519;28;20512;-70
2022/05/15 11:35:00;;;;;;;0.60;0.60;;;35.30;92.60;;;;;;5282309;28;20655;-70
2022/05/15 11:37:40;;;;;;;0.55;0.55;;;35.50;93.20;;;;;;5259412;28;20042;-70
2022/05/15 11:40:31;;;;;;;0.68;0.68;;;35.90;92.50;;;;;;5275321;28;20560;-70
2022/05/15 11:43:30;;;;;;;1.50;1.40;;;35.90;91.40;;;;;;5281120;28;20535;-73
2022/05/15 11:46:09;;;;;;;0.77;0.77;;;36.60;91.60;;;;;;5282026;28;20028;-71
2022/05/15 11:48:54;;;;;;;0.77;0.77;;;36.80;91.00;;;;;;5263915;28;20322;-72
2022/05/15 11:51:32;;;;;;;0.55;0.55;;;38.50;90.00;;;;;;5267571;28;20032;-73
2022/05/15 11:54:10;;;;;;;0.60;0.60;;;38.70;89.60;;;;;;5272341;28;20016;-72
2022/05/15 11:57:05;;;;;;;0.77;0.77;;;35.90;90.00;;;;;;5254909;28;20505;-72
2022/05/15 11:59:47;;;;;;;0.80;0.80;;;35.90;90.70;;;;;;5252528;28;20025;-72
2022/05/15 12:02:21;;;;;;;0.60;0.60;;;37.60;91.30;;;;;;5261877;28;20027;-73
2022/05/15 12:05:01;;;;;;;0.98;0.98;;;39.70;88.10;;;;;;5267202;27;20042;-73
2022/05/15 12:07:54;;;;;;;0.73;0.73;;;39.30;87.70;;;;;;5264579;28;20027;-73
2022/05/15 12:10:35;;;;;;;0.77;0.77;;;39.80;87.20;;;;;;5278399;27;20023;-72
2022/05/15 12:13:38;;;;;;;0.98;0.95;;;39.00;85.70;;;;;;5276010;28;20026;-71
2022/05/15 12:16:50;;;;;;;1.38;1.35;;;38.10;84.80;;;;;;5239389;28;20035;-72
2022/05/15 12:19:35;;;;;;;1.15;1.15;;;37.40;87.00;;;;;;5274156;28;20026;-71
2022/05/15 12:22:11;;;;;;;2.47;1.10;;;38.20;87.30;;;;;;5256202;28;20015;-71
2022/05/15 12:24:48;;;;;;;0.75;0.75;;;38.70;84.90;;;;;;5277617;28;20025;-73
2022/05/15 12:27:22;;;;;;;0.60;0.60;;;37.50;86.40;;;;;;5261175;28;20042;-71
2022/05/15 12:30:09;;;;;;;0.73;0.73;;;37.80;87.40;;;;;;5273248;28;20289;-73
2022/05/15 12:32:54;;;;;;;0.90;0.90;;;37.30;86.10;;;;;;5276287;28;20030;-73
2022/05/15 12:35:40;;;;;;;0.80;0.80;;;37.00;86.60;;;;;;5261249;27;20034;-71
2022/05/15 12:38:19;;;;;;;0.70;0.70;;;37.90;86.40;;;;;;5257545;28;20016;-72
2022/05/15 12:41:07;;;;;;;1.45;1.00;;;39.30;84.50;;;;;;5275126;28;20016;-71
2022/05/15 12:43:44;;;;;;;1.30;1.20;;;39.60;84.70;;;;;;5273302;28;20880;-72
2022/05/15 12:46:34;;;;;;;1.13;1.02;;;40.60;82.90;;;;;;5273691;28;20016;-72
2022/05/15 12:49:07;;;;;;;0.50;0.50;;;41.20;81.80;;;;;;5284324;28;20035;-73
2022/05/15 12:51:43;;;;;;;1.05;1.05;;;40.60;80.90;;;;;;5285226;28;20078;-72
2022/05/15 12:54:28;;;;;;;0.80;0.80;;;40.10;82.40;;;;;;5284720;28;20027;-73
2022/05/15 12:57:04;;;;;;;5.20;1.30;;;40.00;83.30;;;;;;5279065;28;20019;-73
2022/05/15 12:59:38;;;;;;;0.75;0.63;;;40.40;82.90;;;;;;5264404;28;20020;-73
2022/05/15 13:02:35;;;;;;;1.23;1.13;;;40.60;80.90;;;;;;5260644;28;20016;-73
2022/05/15 13:05:40;;;;;;;0.70;0.70;;;39.60;81.00;;;;;;5254059;27;20553;-73
2022/05/15 13:08:17;;;;;;;0.75;0.75;;;39.70;80.20;;;;;;5179940;28;20022;-72
2022/05/15 13:10:54;;;;;;;0.90;0.90;;;40.40;80.40;;;;;;5199945;28;20113;-73
2022/05/15 13:13:35;;;;;;;1.13;1.10;;;41.70;80.70;;;;;;5182883;28;20025;-73
2022/05/15 13:16:17;;;;;;;1.75;1.42;;;42.70;79.60;;;;;;5183530;28;20021;-73
2022/05/15 13:18:51;;;;;;;0.77;0.77;;;41.60;77.30;;;;;;5199362;28;20032;-73
2022/05/15 13:21:34;;;;;;;0.73;0.73;;;41.90;79.10;;;;;;5199002;28;20048;-73
2022/05/15 13:24:09;;;;;;;0.75;0.75;;;42.40;77.60;;;;;;5185539;28;20040;-73
2022/05/15 13:26:44;;;;;;;0.65;0.65;;;41.90;77.60;;;;;;5160068;28;20033;-72
2022/05/15 13:29:22;;;;;;;0.70;0.70;;;40.70;79.50;;;;;;5172510;28;20369;-73
2022/05/15 13:31:57;;;;;;;2.58;1.15;;;36.30;81.90;;;;;;5137250;28;20046;-75
2022/05/15 13:34:29;;;;;;;0.57;0.57;;;36.20;83.10;;;;;;5161659;28;20034;-74
2022/05/15 13:37:14;;;;;;;1.10;0.95;;;37.90;82.10;;;;;;5182105;28;20038;-74
2022/05/15 13:46:12;;;;;;;0.90;0.60;;;38.50;80.90;;;;;;5214361;28;20035;-73
2022/05/15 13:48:57;;;;;;;0.85;0.85;;;40.00;81.00;;;;;;5214526;28;20380;-73
2022/05/15 13:51:54;;;;;;;0.75;0.75;;;39.70;79.70;;;;;;5218654;28;20036;-73
2022/05/15 13:54:28;;;;;;;0.70;0.70;;;40.80;79.60;;;;;;5197529;28;20072;-74
2022/05/15 13:57:01;;;;;;;0.60;0.60;;;41.20;78.50;;;;;;5214462;28;20603;-73
2022/05/15 13:59:58;;;;;;;0.90;0.90;;;42.10;76.90;;;;;;5217129;28;20049;-73
2022/05/15 14:02:31;;;;;;;0.90;0.90;;;41.10;77.00;;;;;;5217792;28;20031;-74
2022/05/15 14:05:16;;;;;;;0.80;0.80;;;40.50;78.60;;;;;;5207601;28;20037;-74
2022/05/15 14:07:51;;;;;;;0.90;0.90;;;40.30;78.00;;;;;;5205316;28;20048;-75
2022/05/15 14:10:24;;;;;;;1.05;1.05;;;40.00;78.50;;;;;;5194632;28;20262;-71